Time;durP1;ratioP1;P1;durP2;ratioP2;P2;SDS_P1;SDS_P2;PMS_P1;PMS_P2;Temp;Humidity;BMP_temperature;BMP_pressure;BME280_temperature;BME280_humidity;BME280_pressure;Samples;Min_cycle;Max_cycle;Signal;HPM_P1;HPM_P2
2021/12/25 00:02:22;;;;;;;14.00;12.60;;;8.50;99.90;;;;;;5045110;28;20605;-88
2021/12/25 00:04:48;;;;;;;13.00;11.60;;;8.40;99.90;;;;;;5043772;28;20220;-88
2021/12/25 00:07:13;;;;;;;13.67;12.37;;;8.60;99.90;;;;;;5036690;28;20225;-88
2021/12/25 00:09:39;;;;;;;12.80;11.70;;;8.60;99.90;;;;;;5030308;28;20252;-88
2021/12/25 00:12:05;;;;;;;12.07;10.93;;;8.60;99.90;;;;;;5041423;28;20234;-87
2021/12/25 00:14:31;;;;;;;13.00;11.70;;;8.50;99.90;;;;;;5049931;28;20197;-88
2021/12/25 00:16:58;;;;;;;13.17;11.87;;;8.40;99.90;;;;;;5047904;28;20252;-86
2021/12/25 00:19:24;;;;;;;14.23;12.83;;;8.40;99.90;;;;;;5044016;28;20193;-88
2021/12/25 00:21:50;;;;;;;14.17;12.60;;;8.50;99.90;;;;;;5033378;28;20191;-88
2021/12/25 00:24:16;;;;;;;13.80;12.30;;;8.60;99.90;;;;;;5047884;28;20193;-88
2021/12/25 00:26:53;;;;;;;12.87;11.57;;;8.60;99.90;;;;;;5028228;28;20276;-87
2021/12/25 00:29:38;;;;;;;13.43;12.17;;;8.60;99.90;;;;;;5048679;28;20229;-88
2021/12/25 00:34:37;;;;;;;12.33;11.13;;;8.60;99.90;;;;;;5045562;28;20568;-87
2021/12/25 00:37:04;;;;;;;13.77;12.37;;;8.70;99.90;;;;;;5044229;28;20297;-87
2021/12/25 00:39:30;;;;;;;12.43;11.20;;;8.60;99.90;;;;;;5050338;28;20346;-88
2021/12/25 00:42:00;;;;;;;13.63;12.23;;;8.50;99.90;;;;;;5053706;28;20220;-88
2021/12/25 00:44:28;;;;;;;13.17;11.97;;;8.40;99.90;;;;;;5035045;28;20197;-87
2021/12/25 00:46:54;;;;;;;13.23;11.90;;;8.40;99.90;;;;;;5042413;28;20255;-88
2021/12/25 00:49:19;;;;;;;12.10;10.83;;;8.20;99.90;;;;;;5043344;28;20572;-88
2021/12/25 00:51:45;;;;;;;13.33;12.03;;;8.30;99.90;;;;;;5049344;28;20227;-88
2021/12/25 00:54:12;;;;;;;14.63;12.83;;;8.30;99.90;;;;;;5050905;28;20228;-88
2021/12/25 00:56:37;;;;;;;13.87;12.57;;;8.40;99.90;;;;;;5058127;28;20224;-88
2021/12/25 00:59:03;;;;;;;14.13;12.20;;;8.30;99.90;;;;;;5039797;28;20228;-88
2021/12/25 01:01:29;;;;;;;15.00;12.37;;;8.40;99.90;;;;;;5055922;28;20266;-88
2021/12/25 01:03:55;;;;;;;13.93;12.53;;;8.40;99.90;;;;;;5047065;28;20252;-88
2021/12/25 01:06:21;;;;;;;14.97;13.47;;;8.40;99.90;;;;;;5013311;28;20204;-87
2021/12/25 01:08:47;;;;;;;15.30;13.43;;;8.40;99.90;;;;;;5039004;28;20218;-88
2021/12/25 01:11:13;;;;;;;15.53;14.00;;;8.40;99.90;;;;;;5043510;28;20201;-88
2021/12/25 01:13:46;;;;;;;15.40;13.93;;;8.50;99.90;;;;;;5045737;28;20243;-88
2021/12/25 01:37:46;;;;;;;16.63;14.27;;;8.30;99.90;;;;;;5044300;28;20230;-87
2021/12/25 01:40:29;;;;;;;16.27;14.67;;;8.30;99.90;;;;;;5047882;28;20682;-87
2021/12/25 01:48:21;;;;;;;16.37;14.50;;;8.40;99.90;;;;;;5045180;28;20259;-87
2021/12/25 01:50:47;;;;;;;17.13;15.17;;;8.40;99.90;;;;;;5032206;28;20575;-87
2021/12/25 01:53:13;;;;;;;16.67;14.80;;;8.30;99.90;;;;;;5047574;28;20707;-87
2021/12/25 01:55:39;;;;;;;16.77;15.00;;;8.30;99.90;;;;;;5046244;28;20194;-87
2021/12/25 01:58:06;;;;;;;17.73;15.80;;;8.60;99.90;;;;;;5024305;28;20222;-87
2021/12/25 02:00:37;;;;;;;17.60;15.70;;;8.50;99.90;;;;;;5041077;28;20560;-87
2021/12/25 02:03:05;;;;;;;17.47;15.60;;;8.40;99.90;;;;;;5055910;28;20199;-87
2021/12/25 02:05:31;;;;;;;19.00;15.73;;;8.40;99.90;;;;;;5050581;28;20215;-88
2021/12/25 02:07:56;;;;;;;17.23;15.33;;;8.30;99.90;;;;;;5031667;28;20720;-89
2021/12/25 02:10:22;;;;;;;19.07;17.07;;;8.30;99.90;;;;;;5038460;28;20219;-87
2021/12/25 02:12:48;;;;;;;17.70;15.93;;;8.30;99.90;;;;;;5056137;28;20276;-87
2021/12/25 02:15:19;;;;;;;19.37;17.33;;;8.40;99.90;;;;;;5054828;28;20176;-88
2021/12/25 02:20:18;;;;;;;19.17;17.20;;;8.40;99.90;;;;;;5052331;28;20662;-87
2021/12/25 02:22:46;;;;;;;21.00;18.40;;;8.50;99.90;;;;;;5043837;28;20213;-89
2021/12/25 02:25:12;;;;;;;21.07;18.80;;;8.40;99.90;;;;;;5032471;28;20204;-88
2021/12/25 02:27:37;;;;;;;24.30;20.80;;;8.40;99.90;;;;;;5051453;28;20225;-88
2021/12/25 02:30:06;;;;;;;20.03;18.03;;;8.30;99.90;;;;;;5043106;28;20274;-89
2021/12/25 02:32:32;;;;;;;19.53;15.87;;;8.40;99.90;;;;;;5065909;28;20228;-87
2021/12/25 02:34:58;;;;;;;18.40;16.50;;;8.60;99.90;;;;;;5053125;28;20666;-87
2021/12/25 02:37:24;;;;;;;17.73;15.83;;;8.70;99.90;;;;;;5052289;28;20212;-89
2021/12/25 02:39:51;;;;;;;17.00;15.30;;;8.80;99.90;;;;;;5061534;28;20194;-88
2021/12/25 02:42:17;;;;;;;17.10;15.50;;;8.70;99.90;;;;;;5050422;28;20277;-87
2021/12/25 02:44:42;;;;;;;17.27;15.53;;;8.60;99.90;;;;;;5049594;28;20221;-89
2021/12/25 02:47:18;;;;;;;18.53;16.70;;;8.50;99.90;;;;;;5034475;28;20782;-87
2021/12/25 02:49:51;;;;;;;18.87;16.97;;;8.60;99.90;;;;;;5050223;28;20616;-88
2021/12/25 02:52:18;;;;;;;21.10;18.83;;;8.40;99.90;;;;;;5051056;28;20621;-87
2021/12/25 02:54:44;;;;;;;20.47;18.33;;;8.40;99.90;;;;;;5049564;28;20667;-88
2021/12/25 02:57:15;;;;;;;19.97;17.87;;;8.30;99.90;;;;;;5030843;28;20217;-88
2021/12/25 02:59:40;;;;;;;19.43;17.47;;;8.30;99.90;;;;;;5048277;28;20185;-88
2021/12/25 03:02:10;;;;;;;21.43;17.90;;;8.30;99.90;;;;;;5050107;28;20545;-88
2021/12/25 03:04:41;;;;;;;22.60;19.17;;;8.20;99.90;;;;;;5047163;28;20199;-90
2021/12/25 03:07:08;;;;;;;23.90;19.63;;;8.20;99.90;;;;;;5043481;28;20209;-88
2021/12/25 03:09:34;;;;;;;27.07;21.00;;;8.20;99.90;;;;;;5054190;28;20202;-88
2021/12/25 03:12:02;;;;;;;25.30;21.43;;;8.10;99.90;;;;;;5052530;28;20219;-87
2021/12/25 03:14:40;;;;;;;27.40;22.13;;;8.20;99.90;;;;;;5052126;28;20193;-88
2021/12/25 03:17:06;;;;;;;25.00;20.77;;;8.10;99.90;;;;;;5053054;28;20211;-87
2021/12/25 03:19:33;;;;;;;24.67;20.07;;;8.10;99.90;;;;;;5035769;28;20222;-87
2021/12/25 03:22:03;;;;;;;24.87;21.03;;;8.10;99.90;;;;;;5042766;28;20234;-90
2021/12/25 03:24:29;;;;;;;24.83;19.93;;;8.10;99.90;;;;;;5050215;28;20296;-88
2021/12/25 03:26:57;;;;;;;25.47;20.30;;;8.10;99.90;;;;;;5043625;28;20299;-88
2021/12/25 03:29:26;;;;;;;23.97;19.43;;;8.10;99.90;;;;;;5057049;28;20193;-88
2021/12/25 03:31:52;;;;;;;22.13;19.23;;;8.10;99.90;;;;;;5043729;28;20583;-89
2021/12/25 03:34:19;;;;;;;24.63;19.57;;;8.00;99.90;;;;;;5044840;28;20184;-89
2021/12/25 03:36:44;;;;;;;22.17;19.27;;;8.10;99.90;;;;;;5027147;28;20197;-89
2021/12/25 03:39:10;;;;;;;21.83;18.37;;;8.00;99.90;;;;;;5043854;28;20200;-88
2021/12/25 03:41:36;;;;;;;21.40;19.10;;;8.00;99.90;;;;;;5028908;28;20196;-88
2021/12/25 03:44:02;;;;;;;20.73;18.00;;;8.10;99.90;;;;;;5046251;28;20196;-89
2021/12/25 03:46:31;;;;;;;22.00;19.10;;;8.10;99.90;;;;;;5061445;28;20176;-88
2021/12/25 03:59:39;;;;;;;21.37;18.97;;;8.00;99.90;;;;;;5040955;28;20674;-89
2021/12/25 04:02:13;;;;;;;23.93;19.33;;;8.10;99.90;;;;;;5038811;28;20185;-89
2021/12/25 04:04:43;;;;;;;22.50;18.33;;;8.10;99.90;;;;;;5034214;28;20219;-89
2021/12/25 04:09:50;;;;;;;21.23;18.57;;;8.00;99.90;;;;;;5043880;28;20178;-89
2021/12/25 04:12:17;;;;;;;20.87;18.43;;;8.10;99.90;;;;;;5044918;28;20296;-89
2021/12/25 04:14:43;;;;;;;21.83;17.47;;;8.10;99.90;;;;;;5044147;28;20271;-88
2021/12/25 04:17:09;;;;;;;19.90;16.83;;;8.10;99.90;;;;;;5029116;28;20287;-88
2021/12/25 04:19:34;;;;;;;19.80;17.33;;;8.20;99.90;;;;;;5044121;28;20478;-89
2021/12/25 04:22:08;;;;;;;19.07;16.53;;;8.20;99.90;;;;;;5041961;28;20687;-89
2021/12/25 04:24:38;;;;;;;20.80;17.57;;;8.20;99.90;;;;;;5043108;28;20211;-89
2021/12/25 04:27:07;;;;;;;20.00;17.17;;;8.20;99.90;;;;;;5038647;28;20216;-89
2021/12/25 04:29:43;;;;;;;17.10;15.40;;;8.30;99.90;;;;;;5042767;28;20193;-89
2021/12/25 05:04:50;;;;;;;15.77;14.07;;;8.80;99.90;;;;;;5041581;28;20555;-89
2021/12/25 05:07:15;;;;;;;16.70;14.60;;;8.80;99.90;;;;;;5044084;28;20216;-88
2021/12/25 05:09:41;;;;;;;17.20;15.40;;;8.80;99.90;;;;;;5048401;28;20778;-88
2021/12/25 05:12:07;;;;;;;15.93;14.23;;;8.70;99.90;;;;;;5048459;28;20220;-89
2021/12/25 05:14:33;;;;;;;15.73;14.13;;;8.60;99.90;;;;;;5036592;28;20192;-88
2021/12/25 05:16:59;;;;;;;15.70;14.00;;;8.70;99.90;;;;;;5046017;28;20216;-89
2021/12/25 05:19:25;;;;;;;22.23;16.10;;;8.70;99.90;;;;;;5056413;28;20192;-88
2021/12/25 05:21:51;;;;;;;17.33;14.90;;;8.70;99.90;;;;;;5048260;28;20176;-88
2021/12/25 05:24:17;;;;;;;16.20;14.50;;;8.70;99.90;;;;;;5050368;28;20287;-88
2021/12/25 05:26:43;;;;;;;16.73;14.93;;;8.70;99.90;;;;;;5048207;28;20219;-88
2021/12/25 05:29:09;;;;;;;16.63;14.83;;;8.60;99.90;;;;;;5029746;28;20290;-89
2021/12/25 05:31:36;;;;;;;20.80;16.37;;;8.60;99.90;;;;;;5048052;28;20236;-89
2021/12/25 05:34:03;;;;;;;19.50;16.00;;;8.40;99.90;;;;;;5019269;28;20192;-88
2021/12/25 05:36:28;;;;;;;37.63;33.53;;;8.50;99.90;;;;;;5044045;28;20216;-87
2021/12/25 05:38:59;;;;;;;18.97;16.97;;;8.60;99.90;;;;;;5042230;28;20680;-88
2021/12/25 05:41:30;;;;;;;18.47;16.00;;;8.60;99.90;;;;;;5047516;28;20187;-88
2021/12/25 05:43:57;;;;;;;17.37;14.57;;;8.50;99.90;;;;;;5042310;28;20173;-88
2021/12/25 05:46:24;;;;;;;17.20;15.13;;;8.40;99.90;;;;;;5044793;28;20655;-88
2021/12/25 05:48:50;;;;;;;18.63;16.33;;;8.40;99.90;;;;;;5043610;28;20211;-88
2021/12/25 05:51:17;;;;;;;20.20;16.70;;;8.40;99.90;;;;;;5030715;28;20184;-88
2021/12/25 05:53:43;;;;;;;21.07;16.67;;;8.40;99.90;;;;;;5042985;28;20192;-88
2021/12/25 05:56:09;;;;;;;21.90;16.67;;;8.30;99.90;;;;;;5045027;28;20192;-88
2021/12/25 05:58:36;;;;;;;20.87;16.83;;;8.20;99.90;;;;;;5042780;28;20605;-88
2021/12/25 06:01:03;;;;;;;19.70;17.60;;;8.30;99.90;;;;;;5042525;28;20189;-88
2021/12/25 06:03:29;;;;;;;22.50;18.43;;;8.30;99.90;;;;;;5052395;28;20214;-87
2021/12/25 06:05:56;;;;;;;23.73;19.67;;;8.20;99.90;;;;;;5069390;28;20176;-87
2021/12/25 06:08:21;;;;;;;24.50;19.37;;;8.10;99.90;;;;;;5059836;28;20212;-87
2021/12/25 06:10:47;;;;;;;24.57;20.43;;;8.00;99.90;;;;;;5073310;28;20188;-88
2021/12/25 06:13:18;;;;;;;22.03;19.20;;;8.00;99.90;;;;;;5018179;28;20234;-88
2021/12/25 06:15:43;;;;;;;22.07;19.23;;;8.10;99.90;;;;;;5041316;28;20197;-88
2021/12/25 06:18:10;;;;;;;22.77;20.47;;;8.00;99.90;;;;;;5044059;28;20282;-88
2021/12/25 06:20:37;;;;;;;22.67;19.77;;;8.00;99.90;;;;;;5041453;28;20231;-88
2021/12/25 06:23:03;;;;;;;27.37;20.70;;;8.00;99.90;;;;;;5041141;28;20193;-88
2021/12/25 06:25:29;;;;;;;28.77;21.17;;;8.00;99.90;;;;;;5042300;28;20582;-88
2021/12/25 06:27:55;;;;;;;22.43;19.73;;;8.00;99.90;;;;;;5048297;28;20220;-88
2021/12/25 06:30:20;;;;;;;24.67;19.50;;;7.90;99.90;;;;;;5035711;28;23326;-88
2021/12/25 06:32:46;;;;;;;22.40;20.00;;;8.00;99.90;;;;;;5041188;28;20215;-89
2021/12/25 06:35:12;;;;;;;22.47;19.27;;;8.00;99.90;;;;;;5041104;28;20201;-89
2021/12/25 06:37:41;;;;;;;25.57;19.97;;;8.00;99.90;;;;;;5041586;28;20246;-89
2021/12/25 06:40:10;;;;;;;24.80;20.07;;;8.00;99.90;;;;;;5046591;28;20279;-89
2021/12/25 06:42:36;;;;;;;23.17;19.60;;;8.00;99.90;;;;;;5032540;28;20207;-89
2021/12/25 06:45:02;;;;;;;23.93;19.90;;;8.00;99.90;;;;;;5054235;28;20223;-88
2021/12/25 06:47:27;;;;;;;24.33;20.20;;;7.90;99.90;;;;;;5047354;28;20239;-89
2021/12/25 06:49:53;;;;;;;26.13;21.53;;;7.90;99.90;;;;;;5051312;28;20253;-89
2021/12/25 06:52:19;;;;;;;22.17;19.27;;;7.90;99.90;;;;;;5051307;28;20244;-89
2021/12/25 06:54:45;;;;;;;23.13;19.43;;;7.90;99.90;;;;;;5047046;28;20188;-89
2021/12/25 06:57:10;;;;;;;23.03;20.03;;;7.90;99.90;;;;;;5046871;28;20207;-89
2021/12/25 06:59:36;;;;;;;21.77;19.33;;;8.00;99.90;;;;;;5043553;28;20713;-89
2021/12/25 07:02:02;;;;;;;21.67;18.33;;;8.10;99.90;;;;;;5039708;28;20196;-88
2021/12/25 07:04:28;;;;;;;20.47;17.63;;;8.10;99.90;;;;;;5047287;28;20205;-89
2021/12/25 07:06:53;;;;;;;21.23;19.03;;;8.10;99.90;;;;;;5046716;28;20221;-89
2021/12/25 07:09:19;;;;;;;20.87;17.33;;;8.00;99.90;;;;;;5030273;28;20579;-89
2021/12/25 07:11:45;;;;;;;20.53;18.10;;;8.10;99.90;;;;;;5028772;28;20339;-88
2021/12/25 07:14:12;;;;;;;18.83;16.90;;;8.10;99.90;;;;;;5046832;28;20607;-89
2021/12/25 07:16:38;;;;;;;19.87;17.77;;;8.20;99.90;;;;;;5044740;28;20188;-89
2021/12/25 07:19:04;;;;;;;21.17;18.40;;;8.10;99.90;;;;;;5043079;28;20471;-87
2021/12/25 07:21:30;;;;;;;23.87;19.10;;;8.00;99.90;;;;;;5044710;28;20683;-87
2021/12/25 07:23:56;;;;;;;24.43;19.37;;;8.00;99.90;;;;;;5046839;28;20207;-87
2021/12/25 07:26:22;;;;;;;21.33;18.77;;;8.00;99.90;;;;;;5046460;28;20663;-87
2021/12/25 07:28:48;;;;;;;21.80;19.07;;;8.00;99.90;;;;;;5044339;28;20217;-87
2021/12/25 07:31:14;;;;;;;21.63;18.30;;;8.00;99.90;;;;;;5044966;28;20223;-88
2021/12/25 07:33:40;;;;;;;20.10;17.90;;;8.00;99.90;;;;;;5036074;28;20196;-87
2021/12/25 07:36:08;;;;;;;19.60;17.50;;;8.00;99.90;;;;;;5043434;28;20272;-88
2021/12/25 07:38:35;;;;;;;19.07;15.87;;;8.00;99.90;;;;;;5045815;28;20702;-88
2021/12/25 07:41:01;;;;;;;18.73;16.80;;;8.10;99.90;;;;;;5047718;28;20207;-87
2021/12/25 07:43:26;;;;;;;18.17;16.23;;;8.10;99.90;;;;;;5047216;28;20600;-87
2021/12/25 07:45:52;;;;;;;19.90;16.33;;;8.10;99.90;;;;;;5027835;28;20276;-87
2021/12/25 07:48:20;;;;;;;17.70;15.87;;;8.10;99.90;;;;;;5046964;28;20366;-87
2021/12/25 07:50:47;;;;;;;19.33;17.20;;;8.10;99.90;;;;;;5049031;28;20276;-87
2021/12/25 07:53:16;;;;;;;16.73;14.93;;;8.10;99.90;;;;;;5064812;28;20730;-87
2021/12/25 07:55:42;;;;;;;18.73;15.93;;;8.10;99.90;;;;;;5047474;28;20230;-88
2021/12/25 07:58:08;;;;;;;18.23;15.70;;;8.10;99.90;;;;;;5032174;28;20252;-88
2021/12/25 08:00:35;;;;;;;16.27;14.57;;;8.10;99.90;;;;;;5045597;28;20250;-88
2021/12/25 08:03:01;;;;;;;16.93;15.20;;;8.20;99.90;;;;;;5029837;28;20246;-88
2021/12/25 08:05:27;;;;;;;16.47;14.77;;;8.20;99.90;;;;;;5047886;28;20192;-87
2021/12/25 08:07:52;;;;;;;16.73;14.93;;;8.30;99.90;;;;;;5047165;28;20649;-88
2021/12/25 08:10:20;;;;;;;19.07;14.90;;;8.30;99.90;;;;;;5045234;28;20289;-87
2021/12/25 08:12:47;;;;;;;17.37;15.17;;;8.20;99.90;;;;;;5026035;28;20592;-88
2021/12/25 08:15:14;;;;;;;15.93;14.37;;;8.20;99.90;;;;;;5039816;28;20533;-88
2021/12/25 08:17:40;;;;;;;16.13;13.43;;;8.30;99.90;;;;;;5046481;28;20242;-88
2021/12/25 08:20:07;;;;;;;16.03;14.30;;;8.40;99.90;;;;;;5041887;28;20188;-88
2021/12/25 08:22:34;;;;;;;16.53;14.83;;;8.20;99.90;;;;;;5072345;28;20184;-87
2021/12/25 08:25:00;;;;;;;16.37;14.60;;;8.30;99.90;;;;;;5067064;28;20203;-87
2021/12/25 08:27:25;;;;;;;16.77;14.57;;;8.30;99.90;;;;;;5074863;28;20239;-86
2021/12/25 08:29:51;;;;;;;16.53;14.83;;;8.20;99.90;;;;;;5070860;28;20227;-87
2021/12/25 08:32:17;;;;;;;16.83;15.03;;;8.30;99.90;;;;;;5049160;28;20696;-88
2021/12/25 08:34:43;;;;;;;16.23;14.63;;;8.20;99.90;;;;;;5048609;28;20215;-87
2021/12/25 08:37:10;;;;;;;15.47;13.87;;;8.30;99.90;;;;;;5049615;28;20225;-87
2021/12/25 08:39:36;;;;;;;16.40;14.43;;;8.30;99.90;;;;;;5051731;28;20210;-88
2021/12/25 08:42:04;;;;;;;16.47;14.73;;;8.30;99.90;;;;;;5047892;28;20291;-87
2021/12/25 08:44:38;;;;;;;16.93;14.00;;;8.30;99.90;;;;;;5049114;28;20212;-87
2021/12/25 08:47:07;;;;;;;16.10;14.23;;;8.30;99.90;;;;;;5032354;28;20704;-88
2021/12/25 08:49:34;;;;;;;16.23;14.27;;;8.30;99.90;;;;;;5050156;28;20834;-88
2021/12/25 08:52:05;;;;;;;17.07;15.37;;;8.40;99.90;;;;;;5047334;28;20219;-88
2021/12/25 08:54:31;;;;;;;16.47;14.67;;;8.30;99.90;;;;;;5041580;28;20608;-88
2021/12/25 08:56:59;;;;;;;16.13;14.43;;;8.30;99.90;;;;;;5048097;28;20227;-88
2021/12/25 08:59:25;;;;;;;16.77;14.10;;;8.30;99.90;;;;;;5044618;28;20209;-87
2021/12/25 09:01:51;;;;;;;15.53;13.83;;;8.30;99.90;;;;;;5044434;28;20196;-87
2021/12/25 09:04:17;;;;;;;15.40;13.80;;;8.40;99.90;;;;;;5049492;28;20564;-87
2021/12/25 09:06:43;;;;;;;16.00;13.80;;;8.40;99.90;;;;;;5044148;28;20721;-88
2021/12/25 09:09:08;;;;;;;15.53;13.93;;;8.40;99.90;;;;;;5047678;28;20188;-87
2021/12/25 09:11:36;;;;;;;15.77;13.83;;;8.50;99.90;;;;;;5042606;28;20271;-88
2021/12/25 09:14:03;;;;;;;15.27;13.60;;;8.60;99.90;;;;;;5043604;28;20192;-88
2021/12/25 09:16:29;;;;;;;15.90;13.73;;;8.60;99.90;;;;;;5044282;28;20213;-87
2021/12/25 09:18:54;;;;;;;13.50;12.10;;;8.60;99.90;;;;;;5031319;28;20330;-87
2021/12/25 09:21:20;;;;;;;15.47;13.77;;;8.60;99.90;;;;;;5046111;28;20212;-88
2021/12/25 09:23:46;;;;;;;14.50;13.07;;;8.70;99.90;;;;;;5027827;28;20196;-88
2021/12/25 09:26:12;;;;;;;15.43;13.87;;;8.60;99.90;;;;;;5029447;28;20218;-88
2021/12/25 09:28:38;;;;;;;14.73;13.23;;;8.70;99.90;;;;;;5027080;28;20719;-88
2021/12/25 09:31:04;;;;;;;14.03;12.63;;;8.80;99.90;;;;;;5034361;28;20184;-87
2021/12/25 09:33:30;;;;;;;15.23;13.40;;;8.70;99.90;;;;;;5045112;28;20223;-87
2021/12/25 09:35:56;;;;;;;15.60;14.00;;;8.80;99.90;;;;;;5048355;28;20188;-87
2021/12/25 09:38:22;;;;;;;14.50;13.03;;;8.70;99.90;;;;;;5045162;28;20216;-87
2021/12/25 09:40:48;;;;;;;15.30;12.90;;;8.90;99.90;;;;;;5048518;28;20195;-86
2021/12/25 09:43:17;;;;;;;12.80;11.47;;;8.90;99.90;;;;;;5048076;28;20192;-87
2021/12/25 09:45:43;;;;;;;13.80;12.50;;;8.90;99.90;;;;;;5054224;28;20192;-87
2021/12/25 09:48:09;;;;;;;14.13;11.60;;;9.00;99.90;;;;;;5051344;28;20217;-87
2021/12/25 09:50:35;;;;;;;13.07;11.67;;;9.00;99.90;;;;;;5051177;28;20196;-87
2021/12/25 09:53:09;;;;;;;12.77;11.30;;;9.00;99.90;;;;;;5049662;28;20204;-87
2021/12/25 09:55:35;;;;;;;14.20;11.20;;;9.00;99.90;;;;;;5054345;28;20192;-87
2021/12/25 09:58:01;;;;;;;14.17;12.67;;;8.90;99.90;;;;;;5052979;28;20200;-87
2021/12/25 10:00:27;;;;;;;13.70;12.30;;;8.90;99.90;;;;;;5050303;28;20877;-88
2021/12/25 10:02:55;;;;;;;13.10;11.80;;;8.90;99.90;;;;;;5051568;28;20192;-87
2021/12/25 10:05:26;;;;;;;15.03;12.33;;;9.00;99.90;;;;;;5050734;28;20536;-87
2021/12/25 10:08:02;;;;;;;14.30;12.03;;;8.90;99.90;;;;;;5047912;28;20371;-87
2021/12/25 10:11:00;;;;;;;13.67;12.27;;;9.00;99.90;;;;;;5049534;28;20263;-87
2021/12/25 10:13:41;;;;;;;15.90;13.17;;;9.00;99.90;;;;;;5045671;28;20223;-87
2021/12/25 10:16:19;;;;;;;18.13;12.13;;;9.00;99.90;;;;;;5049545;28;20192;-87
2021/12/25 10:18:45;;;;;;;12.27;11.07;;;9.00;99.90;;;;;;5047133;28;20204;-87
2021/12/25 10:21:18;;;;;;;12.93;11.60;;;9.00;99.90;;;;;;5051233;28;20188;-87
2021/12/25 10:23:44;;;;;;;12.63;11.33;;;9.00;99.90;;;;;;5045846;28;20640;-87
2021/12/25 10:26:10;;;;;;;13.77;11.50;;;9.10;99.90;;;;;;5051235;28;20259;-87
2021/12/25 10:28:39;;;;;;;12.57;11.23;;;9.10;99.90;;;;;;5047791;28;20299;-87
2021/12/25 10:31:08;;;;;;;11.77;10.43;;;9.30;99.90;;;;;;5052068;28;20184;-87
2021/12/25 10:33:49;;;;;;;13.03;10.67;;;9.40;99.90;;;;;;5055593;28;20237;-88
2021/12/25 10:36:35;;;;;;;11.07;9.93;;;9.30;99.90;;;;;;5054839;28;20211;-87
2021/12/25 10:39:01;;;;;;;12.47;10.87;;;9.20;99.90;;;;;;5059347;28;20185;-87
2021/12/25 10:41:27;;;;;;;11.83;10.60;;;9.30;99.90;;;;;;5065402;28;20243;-87
2021/12/25 10:44:11;;;;;;;11.73;10.50;;;9.30;99.90;;;;;;5077064;28;20196;-87
2021/12/25 10:46:58;;;;;;;12.80;10.70;;;9.20;99.90;;;;;;5057373;28;20227;-87
2021/12/25 10:49:29;;;;;;;10.53;9.53;;;9.40;99.90;;;;;;5044146;28;20196;-87
2021/12/25 10:52:09;;;;;;;12.27;10.00;;;9.50;99.90;;;;;;5038950;28;20216;-87
2021/12/25 10:54:41;;;;;;;11.50;10.30;;;9.50;99.90;;;;;;5050090;28;20199;-87
2021/12/25 10:57:08;;;;;;;10.53;9.37;;;9.40;99.90;;;;;;5025583;28;20212;-88
2021/12/25 10:59:45;;;;;;;12.70;11.40;;;9.50;99.90;;;;;;5047235;28;20223;-87
2021/12/25 11:02:31;;;;;;;10.47;9.37;;;9.60;99.90;;;;;;5043963;28;20576;-87
2021/12/25 11:04:58;;;;;;;11.70;8.83;;;9.80;99.90;;;;;;5047858;28;20197;-87
2021/12/25 11:07:25;;;;;;;13.13;10.80;;;9.70;99.90;;;;;;5036224;28;20216;-87
2021/12/25 11:10:15;;;;;;;11.37;9.90;;;9.80;99.90;;;;;;5038403;28;20192;-87
2021/12/25 11:12:41;;;;;;;11.43;10.33;;;9.70;99.90;;;;;;5047240;28;20318;-87
2021/12/25 11:15:19;;;;;;;11.10;10.00;;;9.70;99.90;;;;;;5045897;28;20197;-87
2021/12/25 11:17:50;;;;;;;11.90;9.90;;;9.80;99.90;;;;;;5050323;28;20231;-88
2021/12/25 11:20:25;;;;;;;12.93;11.53;;;9.80;99.90;;;;;;5052887;28;20188;-88
2021/12/25 11:22:54;;;;;;;12.73;10.83;;;9.50;99.90;;;;;;5034629;28;20184;-87
2021/12/25 11:25:23;;;;;;;12.13;10.93;;;9.50;99.90;;;;;;5042369;28;20210;-87
2021/12/25 11:27:50;;;;;;;12.10;11.00;;;9.40;99.90;;;;;;5046951;28;20209;-88
2021/12/25 11:30:18;;;;;;;12.57;11.27;;;9.40;99.90;;;;;;5054207;28;20184;-87
2021/12/25 11:32:45;;;;;;;13.90;11.30;;;9.50;99.90;;;;;;5050410;28;20299;-88
2021/12/25 11:35:11;;;;;;;11.80;10.70;;;9.50;99.90;;;;;;5047177;28;20737;-88
2021/12/25 11:37:38;;;;;;;12.37;11.10;;;9.50;99.90;;;;;;5031347;28;20200;-88
2021/12/25 11:40:06;;;;;;;11.83;10.73;;;9.60;99.90;;;;;;5045310;28;20205;-88
2021/12/25 11:42:33;;;;;;;11.37;10.17;;;9.70;99.90;;;;;;5040974;28;20202;-87
2021/12/25 11:45:11;;;;;;;11.43;10.23;;;9.90;99.90;;;;;;5049366;28;20193;-87
2021/12/25 11:47:45;;;;;;;11.50;10.30;;;10.00;99.90;;;;;;5048340;28;20627;-87
2021/12/25 11:50:24;;;;;;;11.53;10.37;;;9.80;99.90;;;;;;5050326;28;20210;-87
2021/12/25 11:53:04;;;;;;;11.50;10.30;;;9.70;99.90;;;;;;5046211;28;20303;-87
2021/12/25 11:56:03;;;;;;;11.20;10.10;;;9.50;99.90;;;;;;5035544;28;20206;-86
2021/12/25 11:58:57;;;;;;;10.73;9.73;;;9.60;99.90;;;;;;5035305;28;20625;-86
2021/12/25 12:01:45;;;;;;;11.87;9.83;;;9.50;99.90;;;;;;5047280;28;20197;-86
2021/12/25 12:04:10;;;;;;;10.33;9.33;;;9.60;99.90;;;;;;5045661;28;20190;-86
2021/12/25 12:06:45;;;;;;;11.57;10.47;;;9.80;99.90;;;;;;5038846;28;20210;-86
2021/12/25 12:09:25;;;;;;;15.13;13.70;;;9.80;99.90;;;;;;5035405;28;20218;-87
2021/12/25 12:12:18;;;;;;;10.27;9.37;;;9.70;99.90;;;;;;5049058;28;20217;-87
2021/12/25 12:14:44;;;;;;;10.17;9.13;;;9.80;99.90;;;;;;5043359;28;20190;-87
2021/12/25 12:17:26;;;;;;;10.70;9.60;;;9.90;99.90;;;;;;5044960;28;20385;-87
2021/12/25 12:19:54;;;;;;;10.43;9.40;;;9.80;99.90;;;;;;5041165;28;20199;-87
2021/12/25 12:22:34;;;;;;;10.57;9.57;;;9.90;99.90;;;;;;5045580;28;20203;-86
2021/12/25 12:27:39;;;;;;;10.97;9.83;;;9.60;99.90;;;;;;5046510;28;20210;-87
2021/12/25 12:30:31;;;;;;;11.10;9.60;;;9.80;99.90;;;;;;5035223;28;20214;-87
2021/12/25 12:32:58;;;;;;;11.13;9.93;;;9.90;99.90;;;;;;5035254;28;20309;-87
2021/12/25 12:35:35;;;;;;;10.23;9.30;;;9.90;99.90;;;;;;5047859;28;20200;-86
2021/12/25 12:38:44;;;;;;;10.50;9.40;;;9.90;99.90;;;;;;5039320;28;20224;-87
2021/12/25 12:41:31;;;;;;;10.67;9.57;;;9.90;99.90;;;;;;5047169;28;20251;-88
2021/12/25 12:44:05;;;;;;;10.60;9.57;;;10.00;99.90;;;;;;5041227;28;20449;-88
2021/12/25 12:46:53;;;;;;;11.10;9.83;;;10.00;99.90;;;;;;5044581;28;20264;-87
2021/12/25 12:49:28;;;;;;;11.67;10.50;;;9.90;99.90;;;;;;5044408;28;20602;-88
2021/12/25 12:52:14;;;;;;;11.07;9.97;;;9.80;99.90;;;;;;5035174;28;20213;-88
2021/12/25 12:54:49;;;;;;;10.50;9.50;;;9.90;99.90;;;;;;5052969;28;20696;-87
2021/12/25 12:57:39;;;;;;;10.93;9.93;;;10.00;99.90;;;;;;5051608;28;20205;-87
2021/12/25 13:00:11;;;;;;;10.77;9.73;;;9.90;99.90;;;;;;5050935;28;20194;-86
2021/12/25 13:02:45;;;;;;;11.13;10.13;;;9.80;99.90;;;;;;5042836;28;20244;-88
2021/12/25 13:05:12;;;;;;;10.90;9.90;;;9.70;99.90;;;;;;5051071;28;20305;-88
2021/12/25 13:07:42;;;;;;;12.40;10.90;;;9.70;99.90;;;;;;5051504;28;20608;-87
2021/12/25 13:11:03;;;;;;;11.00;10.00;;;9.70;99.90;;;;;;5051625;28;20201;-87
2021/12/25 13:13:15;;;;;;;11.17;10.00;;;9.80;99.90;;;;;;5043246;28;20239;-87
2021/12/25 13:15:43;;;;;;;10.63;9.63;;;9.80;99.90;;;;;;5027248;28;20191;-87
2021/12/25 13:18:10;;;;;;;12.40;11.07;;;9.80;99.90;;;;;;5042770;28;20211;-88
2021/12/25 13:20:50;;;;;;;10.97;9.87;;;9.90;99.90;;;;;;5043822;28;20226;-88
2021/12/25 13:23:19;;;;;;;11.80;10.60;;;9.80;99.90;;;;;;5033846;28;20202;-87
2021/12/25 13:26:01;;;;;;;10.03;9.07;;;9.80;99.90;;;;;;5045794;28;20253;-88
2021/12/25 13:28:30;;;;;;;12.57;10.23;;;9.90;99.90;;;;;;5050898;28;20215;-87
2021/12/25 13:31:19;;;;;;;11.70;10.60;;;10.00;99.90;;;;;;5046079;28;20681;-87
2021/12/25 13:33:51;;;;;;;10.63;9.73;;;9.90;99.90;;;;;;5043687;28;20230;-87
2021/12/25 13:36:22;;;;;;;10.97;9.83;;;10.00;99.90;;;;;;5041906;28;20709;-88
2021/12/25 13:38:58;;;;;;;10.30;9.17;;;10.30;99.90;;;;;;5045221;28;20221;-87
2021/12/25 13:41:52;;;;;;;15.33;13.83;;;10.30;99.90;;;;;;5045381;28;20199;-87
2021/12/25 13:44:18;;;;;;;16.87;15.17;;;10.20;99.90;;;;;;5026348;28;20194;-87
2021/12/25 13:46:57;;;;;;;16.70;15.10;;;9.80;99.90;;;;;;5039547;28;20208;-87
2021/12/25 13:49:37;;;;;;;17.60;15.90;;;9.40;99.90;;;;;;5042039;28;20199;-87
2021/12/25 13:52:08;;;;;;;19.80;14.77;;;9.10;99.90;;;;;;5030768;28;20205;-87
2021/12/25 13:54:35;;;;;;;16.87;15.10;;;8.90;99.90;;;;;;5041176;28;20199;-87
2021/12/25 13:57:01;;;;;;;17.83;16.03;;;8.70;99.90;;;;;;5043963;28;20279;-86
2021/12/25 13:59:27;;;;;;;22.27;20.07;;;8.60;99.90;;;;;;5044374;28;20640;-86
2021/12/25 14:02:16;;;;;;;19.97;17.87;;;8.50;99.90;;;;;;5044883;28;20200;-87
2021/12/25 14:04:45;;;;;;;19.47;17.50;;;8.50;99.90;;;;;;5036459;28;20208;-87
2021/12/25 14:07:14;;;;;;;17.50;15.10;;;8.50;99.90;;;;;;5048697;28;20695;-86
2021/12/25 14:10:00;;;;;;;23.27;21.17;;;8.30;99.90;;;;;;5046040;28;20254;-87
2021/12/25 14:12:27;;;;;;;16.00;14.40;;;8.30;99.90;;;;;;5020340;28;20695;-87